createdAt,value
2023-03-05T00:06:36.150Z,2.3
2023-03-05T00:20:36.583Z,2.4
2023-03-05T00:23:49.736Z,2.6
2023-03-05T00:37:48.977Z,2.6
2023-03-05T00:50:35.802Z,2.3
2023-03-05T01:00:59.857Z,1.9
2023-03-05T01:03:41.090Z,2.0
2023-03-05T01:13:50.688Z,2.1
2023-03-05T01:27:50.903Z,1.7
2023-03-05T01:32:06.188Z,1.7
2023-03-05T01:47:53.362Z,1.9
2023-03-05T02:01:53.495Z,1.8
2023-03-05T02:07:39.732Z,1.7
2023-03-05T02:19:59.508Z,1.7
2023-03-05T02:31:04.368Z,2.0
2023-03-05T02:36:47.923Z,1.8
2023-03-05T02:46:25.146Z,1.4
2023-03-05T02:50:37.276Z,1.3
2023-03-05T03:01:52.578Z,1.3
2023-03-05T03:09:29.673Z,1.2
2023-03-05T03:23:29.746Z,0.9
2023-03-05T03:37:29.955Z,1.0
2023-03-05T03:40:15.992Z,1.2
2023-03-05T03:47:49.990Z,1.3
2023-03-05T04:02:20.018Z,0.8
2023-03-05T04:19:52.177Z,1.2
2023-03-05T04:24:11.788Z,1.4
2023-03-05T04:30:25.944Z,1.4
2023-03-05T04:36:25.659Z,1.2
2023-03-05T04:50:25.760Z,1.3
2023-03-05T05:04:25.822Z,1.1
2023-03-05T05:18:25.839Z,0.8
2023-03-05T05:24:57.906Z,0.5
2023-03-05T05:36:49.824Z,0.5
2023-03-05T05:50:49.222Z,0.3
2023-03-05T05:56:05.369Z,0.3
2023-03-05T06:05:48.354Z,0.7
2023-03-05T06:13:13.264Z,0.7
2023-03-05T06:20:31.306Z,1.0
2023-03-05T06:24:19.277Z,1.4
2023-03-05T06:33:13.210Z,1.5
2023-03-05T06:47:09.318Z,1.5
2023-03-05T06:55:28.534Z,1.8
2023-03-05T07:02:09.932Z,2.1
2023-03-05T07:14:09.718Z,3.2
2023-03-05T07:17:13.812Z,3.4
2023-03-05T07:33:47.253Z,5.9
2023-03-05T07:39:27.918Z,7.0
2023-03-05T07:54:43.563Z,10.1
2023-03-05T07:57:04.718Z,10.7
2023-03-05T08:12:07.678Z,12.2
2023-03-05T08:27:05.810Z,12.5
2023-03-05T08:33:21.115Z,12.3
2023-03-05T08:39:02.444Z,12.6
2023-03-05T08:54:46.800Z,12.7
2023-03-05T09:09:46.180Z,13.6
2023-03-05T09:15:17.810Z,13.1
2023-03-05T09:24:25.509Z,14.4
2023-03-05T09:39:26.257Z,14.5
2023-03-05T09:52:49.423Z,14.1
2023-03-05T10:01:27.346Z,14.0
2023-03-05T10:06:52.316Z,13.9
2023-03-05T10:15:44.591Z,14.5
2023-03-05T10:29:44.240Z,14.4
2023-03-05T10:43:44.662Z,14.3
2023-03-05T10:47:43.372Z,14.3
2023-03-05T10:54:20.029Z,14.5
2023-03-05T11:08:28.409Z,14.2
2023-03-05T11:24:20.677Z,14.1
2023-03-05T11:33:32.762Z,14.6
2023-03-05T11:40:14.863Z,15.1
2023-03-05T11:44:35.083Z,15.3
2023-03-05T11:50:56.554Z,15.3
2023-03-05T12:01:22.495Z,15.2
2023-03-05T12:04:22.287Z,15.4
2023-03-05T12:13:39.249Z,15.1
2023-03-05T12:20:13.417Z,15.4
2023-03-05T12:35:12.543Z,15.7
2023-03-05T12:44:14.595Z,16.1
2023-03-05T12:59:32.622Z,16.4
2023-03-05T13:08:00.609Z,16.2
2023-03-05T13:14:56.473Z,16.6
2023-03-05T13:23:11.037Z,16.3
2023-03-05T13:34:59.036Z,16.0
2023-03-05T13:50:23.857Z,16.7
2023-03-05T13:59:17.709Z,16.4
2023-03-05T14:09:06.570Z,16.0
2023-03-05T14:17:22.674Z,15.4
2023-03-05T14:21:03.944Z,15.0
2023-03-05T14:24:30.728Z,14.4
2023-03-05T14:34:03.522Z,14.5
2023-03-05T14:44:24.611Z,14.0
2023-03-05T15:05:52.382Z,13.6
2023-03-05T15:20:54.903Z,13.7
2023-03-05T15:29:06.431Z,13.6
2023-03-05T15:33:29.936Z,13.6
2023-03-05T15:48:30.249Z,13.2
2023-03-05T15:51:27.630Z,13.2
2023-03-05T15:59:13.030Z,13.0
2023-03-05T16:12:22.219Z,12.8
2023-03-05T16:18:46.196Z,12.5
2023-03-05T16:33:46.018Z,12.2
2023-03-05T16:44:57.498Z,11.9
2023-03-05T16:52:26.665Z,11.7
2023-03-05T16:56:37.555Z,11.5
2023-03-05T17:01:09.124Z,11.5
2023-03-05T17:10:51.231Z,11.4
2023-03-05T17:29:13.783Z,11.3
2023-03-05T17:43:13.714Z,11.0
2023-03-05T17:55:28.639Z,10.8
2023-03-05T18:07:27.970Z,10.5
2023-03-05T18:17:10.817Z,10.4
2023-03-05T18:28:54.821Z,10.2
2023-03-05T18:34:39.766Z,10.2
2023-03-05T18:48:39.668Z,9.9
2023-03-05T19:02:32.726Z,9.8
2023-03-05T19:06:52.503Z,9.8
2023-03-05T19:13:09.871Z,9.6
2023-03-05T19:27:10.111Z,9.5
2023-03-05T19:37:49.014Z,9.5
2023-03-05T19:50:00.491Z,9.2
2023-03-05T20:03:59.349Z,8.9
2023-03-05T20:12:24.129Z,8.9
2023-03-05T20:16:18.319Z,9.0
2023-03-05T20:30:00.447Z,9.0
2023-03-05T20:42:31.640Z,8.7
2023-03-05T20:56:31.691Z,8.7
2023-03-05T21:06:25.176Z,8.6
2023-03-05T21:20:25.125Z,8.6
2023-03-05T21:31:47.928Z,8.5
2023-03-05T21:37:56.768Z,8.4
2023-03-05T21:49:28.956Z,8.3
2023-03-05T22:03:29.050Z,8.2
2023-03-05T22:18:05.772Z,8.1
2023-03-05T22:22:52.941Z,8.2
2023-03-05T22:30:59.200Z,8.0
2023-03-05T22:38:46.067Z,7.9
2023-03-05T22:52:46.001Z,7.6
2023-03-05T23:05:20.265Z,7.4
2023-03-05T23:16:44.127Z,7.3
2023-03-05T23:25:12.056Z,7.3
2023-03-05T23:40:06.540Z,7.5
2023-03-05T23:52:14.206Z,7.7
